This demonstration page uses our WeatherBlox Daily Observations layout. Learn more.

Hourly Observations for June 15, 2020

Temp ( °F °C ) Dew Point ( °F °C ) Humidity (%) Winds ( mph kmh ) Pressure ( in mb ) Visibility ( mi km ) Precip ( " mm )
12:54 am 00:54 Clear 79 26.1 60 15.6 52 52 S 15 24 29.98 1015 10 16.0934 0 0
1:54 am 01:54 Clear 78 25.6 59 15 52 52 S 14 22 29.99 1016 10 16.0934 0 0
2:54 am 02:54 Clear 77 25 59 15 54 54 S 15 24 30 1016 10 16.0934 0 0
3:54 am 03:54 Clear 75 23.9 59 15 58 58 S 14 22 30.01 1016 10 16.0934 0 0
4:54 am 04:54 Clear 73 22.8 59 15 62 62 S 12 19 30.02 1017 10 16.0934 0 0
5:54 am 05:54 Clear 72 22.2 59 15 64 64 S 12 19 30.04 1017 10 16.0934 0 0
6:54 am 06:54 Sunny 73 22.8 60 15.6 64 64 S 12 19 30.05 1018 10 16.0934 0 0
7:54 am 07:54 Sunny 76 24.4 61 16.1 60 60 S 12 19 30.07 1018 10 16.0934 0 0
11:54 am 11:54 Sunny 89 31.7 56 13.3 33 33 SSW 17 28 30.02 1017 10 16.09 0 0
12:54 pm 12:54 Sunny 89 31.7 56 13.3 33 33 SSW 20 32 30 1016 10 16.09 0 0
1:54 pm 13:54 Sunny 92 33.3 55 12.8 29 29 S 21 33 29.99 1016 10 16.09 0 0
2:54 pm 14:54 Sunny 93 33.9 57 13.9 30 30 S 21 33 29.98 1015 10 16.09 0 0
3:54 pm 15:54 Sunny 92 33.3 58 14.4 32 32 S 18 30 29.99 1016 10 16.09 0 0
4:54 pm 16:54 Sunny 92 33.3 56 13.3 30 30 S 20 32 29.98 1015 10 16.09 0 0
5:54 pm 17:54 Sunny 91 32.8 55 12.8 30 30 S 23 37 30.03 1017 10 16.0934 0 0
6:54 pm 18:54 Sunny 90 32.2 54 12.2 29 29 S 26 43 30.02 1017 10 16.0934 0 0
7:54 pm 19:54 Sunny 87 30.6 54 12.2 32 32 S 18 30 30.03 1017 10 16.0934 0 0
8:54 pm 20:54 Sunny 83 28.3 57 13.9 41 41 SSE 14 22 30.05 1018 10 16.0934 0 0
9:54 pm 21:54 Clear 82 27.8 59 15 46 46 SSE 15 24 30.06 1018 10 16.0934 0 0
10:54 pm 22:54 Clear 80 26.7 58 14.4 47 47 SSE 14 22 30.07 1018 10 16.0934 0 0
11:54 pm 23:54 Clear 78 25.6 59 15 52 52 SSE 14 22 30.07 1018 10 16.0934 0 0

Powered by AerisWeather